Terminal Aerodrome Forecast
Issued by NWS

Home | Current Version | Previous Version | Text Only | Print | Product List | Glossary On
Versions: 1 2 3 4 5 6 7 8 9 10 11 12 13 14 15 16 17 18 19 20 21 22 23 24 25
000
FTUS43 KGRB 231700
TAFCWA
TAF
KCWA 231734Z 2318/2418 10008KT 3SM BR OVC006
     FM232100 09008KT P6SM VCSH SCT010 BKN023
     FM240100 05004KT 6SM BR SCT018 BKN028
     FM240500 05003KT 4SM BR OVC008
     FM240700 05004KT 2SM BR OVC004
     FM241500 12010KT P6SM SCT008 BKN015=

USA.gov is the U.S. government's official web portal to all federal, state and local government web resources and services.